sensor_id;sensor_type;location;lat;lon;timestamp;temperature;humidity
5011;DHT22;2524;54.364;10.072;2023-03-14T00:00:56;11.00;99.90
5011;DHT22;2524;54.364;10.072;2023-03-14T00:03:21;11.00;99.90
5011;DHT22;2524;54.364;10.072;2023-03-14T00:05:47;11.10;99.90
5011;DHT22;2524;54.364;10.072;2023-03-14T00:08:12;11.00;99.90
5011;DHT22;2524;54.364;10.072;2023-03-14T00:10:38;10.90;99.90
5011;DHT22;2524;54.364;10.072;2023-03-14T00:13:04;11.00;99.90
5011;DHT22;2524;54.364;10.072;2023-03-14T00:15:31;10.90;99.90
5011;DHT22;2524;54.364;10.072;2023-03-14T00:17:57;10.90;99.90
5011;DHT22;2524;54.364;10.072;2023-03-14T00:20:22;11.00;99.90
5011;DHT22;2524;54.364;10.072;2023-03-14T00:22:48;10.80;99.90
5011;DHT22;2524;54.364;10.072;2023-03-14T00:25:13;10.80;99.90
5011;DHT22;2524;54.364;10.072;2023-03-14T00:27:39;10.80;99.90
5011;DHT22;2524;54.364;10.072;2023-03-14T00:30:05;10.80;99.90
5011;DHT22;2524;54.364;10.072;2023-03-14T00:32:33;10.80;99.90
5011;DHT22;2524;54.364;10.072;2023-03-14T00:34:58;10.80;99.90
5011;DHT22;2524;54.364;10.072;2023-03-14T00:37:26;10.80;99.90
5011;DHT22;2524;54.364;10.072;2023-03-14T00:39:52;10.80;99.90
5011;DHT22;2524;54.364;10.072;2023-03-14T00:42:17;10.80;99.90
5011;DHT22;2524;54.364;10.072;2023-03-14T00:44:43;10.80;99.90
5011;DHT22;2524;54.364;10.072;2023-03-14T00:47:08;10.80;99.90
5011;DHT22;2524;54.364;10.072;2023-03-14T00:49:34;10.80;99.90
5011;DHT22;2524;54.364;10.072;2023-03-14T00:52:00;10.80;99.90
5011;DHT22;2524;54.364;10.072;2023-03-14T00:54:25;10.80;99.90
5011;DHT22;2524;54.364;10.072;2023-03-14T00:56:51;10.90;99.90
5011;DHT22;2524;54.364;10.072;2023-03-14T00:59:16;10.80;99.90
5011;DHT22;2524;54.364;10.072;2023-03-14T01:01:43;10.90;99.90
5011;DHT22;2524;54.364;10.072;2023-03-14T01:04:09;10.80;99.90
5011;DHT22;2524;54.364;10.072;2023-03-14T01:06:34;10.90;99.90
5011;DHT22;2524;54.364;10.072;2023-03-14T01:09:01;10.90;99.90
5011;DHT22;2524;54.364;10.072;2023-03-14T01:11:31;10.70;99.90
5011;DHT22;2524;54.364;10.072;2023-03-14T01:13:58;10.70;99.90
5011;DHT22;2524;54.364;10.072;2023-03-14T01:16:26;10.70;99.90
5011;DHT22;2524;54.364;10.072;2023-03-14T01:18:51;10.70;99.90
5011;DHT22;2524;54.364;10.072;2023-03-14T01:23:45;10.70;99.90
5011;DHT22;2524;54.364;10.072;2023-03-14T01:26:12;10.80;99.90
5011;DHT22;2524;54.364;10.072;2023-03-14T01:28:39;10.70;99.90
5011;DHT22;2524;54.364;10.072;2023-03-14T01:31:06;10.70;99.90
5011;DHT22;2524;54.364;10.072;2023-03-14T01:33:32;10.60;99.90
5011;DHT22;2524;54.364;10.072;2023-03-14T01:35:58;10.70;99.90
5011;DHT22;2524;54.364;10.072;2023-03-14T01:38:24;10.60;99.90
5011;DHT22;2524;54.364;10.072;2023-03-14T01:40:50;10.60;99.90
5011;DHT22;2524;54.364;10.072;2023-03-14T01:43:18;10.60;99.90
5011;DHT22;2524;54.364;10.072;2023-03-14T01:51:29;10.60;99.90
5011;DHT22;2524;54.364;10.072;2023-03-14T01:54:08;10.60;99.90
5011;DHT22;2524;54.364;10.072;2023-03-14T01:56:35;10.60;99.90
5011;DHT22;2524;54.364;10.072;2023-03-14T01:59:04;10.60;99.90
5011;DHT22;2524;54.364;10.072;2023-03-14T02:01:32;10.60;99.90
5011;DHT22;2524;54.364;10.072;2023-03-14T02:04:00;10.60;99.90
5011;DHT22;2524;54.364;10.072;2023-03-14T02:06:32;10.60;99.90
5011;DHT22;2524;54.364;10.072;2023-03-14T02:09:00;10.60;99.90
5011;DHT22;2524;54.364;10.072;2023-03-14T02:11:28;10.60;99.90
5011;DHT22;2524;54.364;10.072;2023-03-14T02:13:56;10.60;99.90
5011;DHT22;2524;54.364;10.072;2023-03-14T02:16:23;10.60;99.90
5011;DHT22;2524;54.364;10.072;2023-03-14T02:18:48;10.60;99.90
5011;DHT22;2524;54.364;10.072;2023-03-14T02:21:17;10.70;99.90
5011;DHT22;2524;54.364;10.072;2023-03-14T02:26:42;10.70;99.90
5011;DHT22;2524;54.364;10.072;2023-03-14T02:29:09;10.80;99.90
5011;DHT22;2524;54.364;10.072;2023-03-14T02:31:35;10.70;99.90
5011;DHT22;2524;54.364;10.072;2023-03-14T02:34:02;10.70;99.90
5011;DHT22;2524;54.364;10.072;2023-03-14T02:36:28;10.70;99.90
5011;DHT22;2524;54.364;10.072;2023-03-14T02:39:06;10.70;99.90
5011;DHT22;2524;54.364;10.072;2023-03-14T02:41:32;10.70;99.90
5011;DHT22;2524;54.364;10.072;2023-03-14T02:43:58;10.70;99.90
5011;DHT22;2524;54.364;10.072;2023-03-14T02:46:23;10.60;99.90
5011;DHT22;2524;54.364;10.072;2023-03-14T02:51:21;10.60;99.90
5011;DHT22;2524;54.364;10.072;2023-03-14T02:53:47;10.60;99.90
5011;DHT22;2524;54.364;10.072;2023-03-14T02:56:13;10.60;99.90
5011;DHT22;2524;54.364;10.072;2023-03-14T02:58:38;10.60;99.90
5011;DHT22;2524;54.364;10.072;2023-03-14T03:01:04;10.60;99.90
5011;DHT22;2524;54.364;10.072;2023-03-14T03:03:30;10.60;99.90
5011;DHT22;2524;54.364;10.072;2023-03-14T03:05:56;10.60;99.90
5011;DHT22;2524;54.364;10.072;2023-03-14T03:08:23;10.60;99.90
5011;DHT22;2524;54.364;10.072;2023-03-14T03:10:50;10.70;99.90
5011;DHT22;2524;54.364;10.072;2023-03-14T03:13:16;10.60;99.90
5011;DHT22;2524;54.364;10.072;2023-03-14T03:15:42;10.70;99.90
5011;DHT22;2524;54.364;10.072;2023-03-14T03:18:08;10.60;99.90
5011;DHT22;2524;54.364;10.072;2023-03-14T03:20:34;10.60;99.90
5011;DHT22;2524;54.364;10.072;2023-03-14T03:22:59;10.60;99.90
5011;DHT22;2524;54.364;10.072;2023-03-14T03:25:26;10.60;99.90
5011;DHT22;2524;54.364;10.072;2023-03-14T03:27:51;10.70;99.90
5011;DHT22;2524;54.364;10.072;2023-03-14T03:30:17;10.60;99.90
5011;DHT22;2524;54.364;10.072;2023-03-14T03:32:43;10.70;99.90
5011;DHT22;2524;54.364;10.072;2023-03-14T03:35:09;10.70;99.90
5011;DHT22;2524;54.364;10.072;2023-03-14T03:37:35;10.70;99.90
5011;DHT22;2524;54.364;10.072;2023-03-14T03:40:01;10.70;99.90
5011;DHT22;2524;54.364;10.072;2023-03-14T03:42:30;10.70;99.90
5011;DHT22;2524;54.364;10.072;2023-03-14T03:44:55;10.70;99.90
5011;DHT22;2524;54.364;10.072;2023-03-14T03:47:21;10.80;99.90
5011;DHT22;2524;54.364;10.072;2023-03-14T03:49:46;10.70;99.90
5011;DHT22;2524;54.364;10.072;2023-03-14T03:52:12;10.80;99.90
5011;DHT22;2524;54.364;10.072;2023-03-14T03:54:37;10.70;99.90
5011;DHT22;2524;54.364;10.072;2023-03-14T03:57:03;10.80;99.90
5011;DHT22;2524;54.364;10.072;2023-03-14T03:59:29;10.70;99.90
5011;DHT22;2524;54.364;10.072;2023-03-14T04:01:54;10.70;99.90
5011;DHT22;2524;54.364;10.072;2023-03-14T04:04:20;10.70;99.90
5011;DHT22;2524;54.364;10.072;2023-03-14T04:06:45;10.60;99.90
5011;DHT22;2524;54.364;10.072;2023-03-14T04:09:12;10.60;99.90
5011;DHT22;2524;54.364;10.072;2023-03-14T04:11:37;10.70;99.90
5011;DHT22;2524;54.364;10.072;2023-03-14T04:14:04;10.70;99.90
5011;DHT22;2524;54.364;10.072;2023-03-14T04:16:30;10.60;99.90
5011;DHT22;2524;54.364;10.072;2023-03-14T04:18:59;10.50;99.90
5011;DHT22;2524;54.364;10.072;2023-03-14T04:21:24;10.60;99.90
5011;DHT22;2524;54.364;10.072;2023-03-14T04:23:50;10.50;99.90
5011;DHT22;2524;54.364;10.072;2023-03-14T04:26:16;10.50;99.90
5011;DHT22;2524;54.364;10.072;2023-03-14T04:28:42;10.50;99.90
5011;DHT22;2524;54.364;10.072;2023-03-14T04:31:12;10.50;99.90
5011;DHT22;2524;54.364;10.072;2023-03-14T04:33:38;10.50;99.90
5011;DHT22;2524;54.364;10.072;2023-03-14T04:36:07;10.40;99.90
5011;DHT22;2524;54.364;10.072;2023-03-14T04:38:34;10.40;99.90
5011;DHT22;2524;54.364;10.072;2023-03-14T04:40:59;10.30;99.90
5011;DHT22;2524;54.364;10.072;2023-03-14T04:43:26;10.30;99.90
5011;DHT22;2524;54.364;10.072;2023-03-14T04:45:56;10.30;99.90
5011;DHT22;2524;54.364;10.072;2023-03-14T04:48:23;10.30;99.90
5011;DHT22;2524;54.364;10.072;2023-03-14T04:50:49;10.30;99.90
5011;DHT22;2524;54.364;10.072;2023-03-14T04:53:16;10.20;99.90
5011;DHT22;2524;54.364;10.072;2023-03-14T04:55:42;10.20;99.90
5011;DHT22;2524;54.364;10.072;2023-03-14T04:58:07;10.20;99.90
5011;DHT22;2524;54.364;10.072;2023-03-14T05:00:33;10.20;99.90
5011;DHT22;2524;54.364;10.072;2023-03-14T05:02:58;10.20;99.90
5011;DHT22;2524;54.364;10.072;2023-03-14T05:05:24;10.10;99.90
5011;DHT22;2524;54.364;10.072;2023-03-14T05:07:50;10.10;99.90
5011;DHT22;2524;54.364;10.072;2023-03-14T05:10:16;10.10;99.90
5011;DHT22;2524;54.364;10.072;2023-03-14T05:12:41;10.10;99.90
5011;DHT22;2524;54.364;10.072;2023-03-14T05:15:07;10.10;99.90
5011;DHT22;2524;54.364;10.072;2023-03-14T05:17:33;10.10;99.90
5011;DHT22;2524;54.364;10.072;2023-03-14T05:19:59;10.10;99.90
5011;DHT22;2524;54.364;10.072;2023-03-14T05:22:25;10.10;99.90
5011;DHT22;2524;54.364;10.072;2023-03-14T05:24:50;10.10;99.90
5011;DHT22;2524;54.364;10.072;2023-03-14T05:27:16;10.00;99.90
5011;DHT22;2524;54.364;10.072;2023-03-14T05:29:42;10.10;99.90
5011;DHT22;2524;54.364;10.072;2023-03-14T05:32:07;10.00;99.90
5011;DHT22;2524;54.364;10.072;2023-03-14T05:34:33;10.00;99.90
5011;DHT22;2524;54.364;10.072;2023-03-14T05:36:59;9.90;99.90
5011;DHT22;2524;54.364;10.072;2023-03-14T05:39:24;9.90;99.90
5011;DHT22;2524;54.364;10.072;2023-03-14T05:41:50;9.90;99.90
5011;DHT22;2524;54.364;10.072;2023-03-14T05:44:16;9.80;99.90
5011;DHT22;2524;54.364;10.072;2023-03-14T05:46:42;10.00;99.90
5011;DHT22;2524;54.364;10.072;2023-03-14T05:49:08;9.90;99.90
5011;DHT22;2524;54.364;10.072;2023-03-14T05:51:34;9.80;99.90
5011;DHT22;2524;54.364;10.072;2023-03-14T05:53:59;9.80;99.90
5011;DHT22;2524;54.364;10.072;2023-03-14T05:56:25;9.80;99.90
5011;DHT22;2524;54.364;10.072;2023-03-14T05:58:51;9.70;99.90
5011;DHT22;2524;54.364;10.072;2023-03-14T06:01:16;9.70;99.90
5011;DHT22;2524;54.364;10.072;2023-03-14T06:03:42;9.90;99.90
5011;DHT22;2524;54.364;10.072;2023-03-14T06:06:07;9.60;99.90
5011;DHT22;2524;54.364;10.072;2023-03-14T06:08:33;9.60;99.90
5011;DHT22;2524;54.364;10.072;2023-03-14T06:10:59;9.60;99.90
5011;DHT22;2524;54.364;10.072;2023-03-14T06:13:27;9.60;99.90
5011;DHT22;2524;54.364;10.072;2023-03-14T06:15:53;9.60;99.90
5011;DHT22;2524;54.364;10.072;2023-03-14T06:18:18;9.70;99.90
5011;DHT22;2524;54.364;10.072;2023-03-14T06:20:44;9.60;99.90
5011;DHT22;2524;54.364;10.072;2023-03-14T06:23:14;9.60;99.90
5011;DHT22;2524;54.364;10.072;2023-03-14T06:25:39;9.60;99.90
5011;DHT22;2524;54.364;10.072;2023-03-14T06:28:05;9.60;99.90
5011;DHT22;2524;54.364;10.072;2023-03-14T06:30:31;9.80;99.90
5011;DHT22;2524;54.364;10.072;2023-03-14T06:32:56;9.80;99.90
5011;DHT22;2524;54.364;10.072;2023-03-14T06:35:22;9.60;99.90
5011;DHT22;2524;54.364;10.072;2023-03-14T06:37:48;9.60;99.90
5011;DHT22;2524;54.364;10.072;2023-03-14T06:40:14;9.80;99.90
5011;DHT22;2524;54.364;10.072;2023-03-14T06:42:44;9.60;99.90
5011;DHT22;2524;54.364;10.072;2023-03-14T06:45:13;9.60;99.90
5011;DHT22;2524;54.364;10.072;2023-03-14T06:47:39;9.80;99.90
5011;DHT22;2524;54.364;10.072;2023-03-14T06:50:08;9.70;99.90
5011;DHT22;2524;54.364;10.072;2023-03-14T06:52:34;9.70;99.90
5011;DHT22;2524;54.364;10.072;2023-03-14T06:55:00;9.70;99.90
5011;DHT22;2524;54.364;10.072;2023-03-14T06:57:25;9.90;99.90
5011;DHT22;2524;54.364;10.072;2023-03-14T06:59:51;9.80;99.90
5011;DHT22;2524;54.364;10.072;2023-03-14T07:02:16;9.80;99.90
5011;DHT22;2524;54.364;10.072;2023-03-14T07:04:42;9.90;99.90
5011;DHT22;2524;54.364;10.072;2023-03-14T07:07:08;9.90;99.90
5011;DHT22;2524;54.364;10.072;2023-03-14T07:09:34;9.90;99.90
5011;DHT22;2524;54.364;10.072;2023-03-14T07:12:00;9.80;99.90
5011;DHT22;2524;54.364;10.072;2023-03-14T07:14:26;9.90;99.90
5011;DHT22;2524;54.364;10.072;2023-03-14T07:16:51;9.80;99.90
5011;DHT22;2524;54.364;10.072;2023-03-14T07:19:17;10.00;99.90
5011;DHT22;2524;54.364;10.072;2023-03-14T07:21:43;10.00;99.90
5011;DHT22;2524;54.364;10.072;2023-03-14T07:24:08;10.00;99.90
5011;DHT22;2524;54.364;10.072;2023-03-14T07:26:34;9.90;99.90
5011;DHT22;2524;54.364;10.072;2023-03-14T07:29:00;9.90;99.90
5011;DHT22;2524;54.364;10.072;2023-03-14T07:31:29;10.00;99.90
5011;DHT22;2524;54.364;10.072;2023-03-14T07:33:54;9.90;99.90
5011;DHT22;2524;54.364;10.072;2023-03-14T07:36:20;9.90;99.90
5011;DHT22;2524;54.364;10.072;2023-03-14T07:38:45;9.90;99.90
5011;DHT22;2524;54.364;10.072;2023-03-14T07:41:12;9.90;99.90
5011;DHT22;2524;54.364;10.072;2023-03-14T07:43:38;9.90;99.90
5011;DHT22;2524;54.364;10.072;2023-03-14T07:46:04;10.10;99.90
5011;DHT22;2524;54.364;10.072;2023-03-14T07:48:30;10.00;99.90
5011;DHT22;2524;54.364;10.072;2023-03-14T07:50:56;10.00;99.90
5011;DHT22;2524;54.364;10.072;2023-03-14T07:53:22;9.90;99.90
5011;DHT22;2524;54.364;10.072;2023-03-14T07:55:48;10.00;99.90
5011;DHT22;2524;54.364;10.072;2023-03-14T07:58:15;9.90;99.90
5011;DHT22;2524;54.364;10.072;2023-03-14T08:00:41;9.90;99.90
5011;DHT22;2524;54.364;10.072;2023-03-14T08:03:08;10.00;99.90
5011;DHT22;2524;54.364;10.072;2023-03-14T08:05:38;9.90;99.90
5011;DHT22;2524;54.364;10.072;2023-03-14T08:08:04;9.90;99.90
5011;DHT22;2524;54.364;10.072;2023-03-14T08:10:31;9.90;99.90
5011;DHT22;2524;54.364;10.072;2023-03-14T08:12:58;10.10;99.90
5011;DHT22;2524;54.364;10.072;2023-03-14T08:15:25;10.00;99.90
5011;DHT22;2524;54.364;10.072;2023-03-14T08:17:51;9.90;99.90
5011;DHT22;2524;54.364;10.072;2023-03-14T08:20:18;10.10;99.90
5011;DHT22;2524;54.364;10.072;2023-03-14T08:22:44;10.00;99.90
5011;DHT22;2524;54.364;10.072;2023-03-14T08:25:10;10.10;99.90
5011;DHT22;2524;54.364;10.072;2023-03-14T08:27:36;9.90;99.90
5011;DHT22;2524;54.364;10.072;2023-03-14T08:30:05;9.90;99.90
5011;DHT22;2524;54.364;10.072;2023-03-14T08:32:32;9.90;99.90
5011;DHT22;2524;54.364;10.072;2023-03-14T08:34:58;9.90;99.90
5011;DHT22;2524;54.364;10.072;2023-03-14T08:37:24;9.80;99.90
5011;DHT22;2524;54.364;10.072;2023-03-14T08:39:50;9.80;99.90
5011;DHT22;2524;54.364;10.072;2023-03-14T08:42:17;9.80;99.90
5011;DHT22;2524;54.364;10.072;2023-03-14T08:44:42;9.80;99.90
5011;DHT22;2524;54.364;10.072;2023-03-14T08:47:08;9.80;99.90
5011;DHT22;2524;54.364;10.072;2023-03-14T08:49:33;9.80;99.90
5011;DHT22;2524;54.364;10.072;2023-03-14T08:52:01;9.70;99.90
5011;DHT22;2524;54.364;10.072;2023-03-14T08:54:27;9.60;99.90
5011;DHT22;2524;54.364;10.072;2023-03-14T08:56:53;9.30;99.90
5011;DHT22;2524;54.364;10.072;2023-03-14T08:59:18;9.00;99.90
5011;DHT22;2524;54.364;10.072;2023-03-14T09:01:44;9.00;99.90
5011;DHT22;2524;54.364;10.072;2023-03-14T09:04:09;8.80;99.90
5011;DHT22;2524;54.364;10.072;2023-03-14T09:06:35;8.60;99.90
5011;DHT22;2524;54.364;10.072;2023-03-14T09:09:01;8.40;99.90
5011;DHT22;2524;54.364;10.072;2023-03-14T09:11:27;8.20;99.90
5011;DHT22;2524;54.364;10.072;2023-03-14T09:13:53;8.10;99.90
5011;DHT22;2524;54.364;10.072;2023-03-14T09:16:18;7.90;99.90
5011;DHT22;2524;54.364;10.072;2023-03-14T09:18:44;7.70;99.90
5011;DHT22;2524;54.364;10.072;2023-03-14T09:21:10;7.60;99.90
5011;DHT22;2524;54.364;10.072;2023-03-14T09:23:35;7.40;99.90
5011;DHT22;2524;54.364;10.072;2023-03-14T09:26:01;7.30;99.90
5011;DHT22;2524;54.364;10.072;2023-03-14T09:28:27;7.00;99.90
5011;DHT22;2524;54.364;10.072;2023-03-14T09:30:54;6.90;99.90
5011;DHT22;2524;54.364;10.072;2023-03-14T09:33:20;6.70;99.90
5011;DHT22;2524;54.364;10.072;2023-03-14T09:35:46;6.50;99.90
5011;DHT22;2524;54.364;10.072;2023-03-14T09:38:12;6.40;99.90
5011;DHT22;2524;54.364;10.072;2023-03-14T09:40:39;6.30;99.90
5011;DHT22;2524;54.364;10.072;2023-03-14T09:43:05;6.20;99.90
5011;DHT22;2524;54.364;10.072;2023-03-14T09:45:38;6.30;99.90
5011;DHT22;2524;54.364;10.072;2023-03-14T09:48:08;6.20;99.90
5011;DHT22;2524;54.364;10.072;2023-03-14T09:50:41;6.00;99.90
5011;DHT22;2524;54.364;10.072;2023-03-14T09:53:13;6.00;99.90
5011;DHT22;2524;54.364;10.072;2023-03-14T09:55:42;5.90;99.90
5011;DHT22;2524;54.364;10.072;2023-03-14T09:58:17;5.90;99.90
5011;DHT22;2524;54.364;10.072;2023-03-14T10:00:44;5.80;99.90
5011;DHT22;2524;54.364;10.072;2023-03-14T10:05:42;5.70;99.90
5011;DHT22;2524;54.364;10.072;2023-03-14T10:08:12;5.70;99.90
5011;DHT22;2524;54.364;10.072;2023-03-14T10:10:38;5.70;99.90
5011;DHT22;2524;54.364;10.072;2023-03-14T10:13:17;5.80;99.90
5011;DHT22;2524;54.364;10.072;2023-03-14T10:15:51;5.80;99.90
5011;DHT22;2524;54.364;10.072;2023-03-14T10:18:17;5.80;99.90
5011;DHT22;2524;54.364;10.072;2023-03-14T10:20:47;5.80;99.90
5011;DHT22;2524;54.364;10.072;2023-03-14T10:25:58;5.80;99.90
5011;DHT22;2524;54.364;10.072;2023-03-14T10:28:29;5.90;99.90
5011;DHT22;2524;54.364;10.072;2023-03-14T10:30:57;5.90;99.90
5011;DHT22;2524;54.364;10.072;2023-03-14T10:33:26;5.90;99.90
5011;DHT22;2524;54.364;10.072;2023-03-14T10:36:03;5.90;99.90
5011;DHT22;2524;54.364;10.072;2023-03-14T10:38:32;6.00;99.90
5011;DHT22;2524;54.364;10.072;2023-03-14T10:40:58;5.90;99.90
5011;DHT22;2524;54.364;10.072;2023-03-14T10:43:32;5.90;99.90
5011;DHT22;2524;54.364;10.072;2023-03-14T10:46:16;5.90;99.90
5011;DHT22;2524;54.364;10.072;2023-03-14T10:48:42;6.00;99.90
5011;DHT22;2524;54.364;10.072;2023-03-14T10:54:01;6.00;99.90
5011;DHT22;2524;54.364;10.072;2023-03-14T10:56:34;6.00;99.90
5011;DHT22;2524;54.364;10.072;2023-03-14T10:58:59;6.00;99.90
5011;DHT22;2524;54.364;10.072;2023-03-14T11:09:39;6.10;99.90
5011;DHT22;2524;54.364;10.072;2023-03-14T11:21:30;6.20;99.90
5011;DHT22;2524;54.364;10.072;2023-03-14T11:29:11;6.40;99.90
5011;DHT22;2524;54.364;10.072;2023-03-14T11:31:40;6.40;99.90
5011;DHT22;2524;54.364;10.072;2023-03-14T11:34:15;6.50;99.90
5011;DHT22;2524;54.364;10.072;2023-03-14T11:37:00;6.60;99.90
5011;DHT22;2524;54.364;10.072;2023-03-14T11:39:54;6.60;99.90
5011;DHT22;2524;54.364;10.072;2023-03-14T11:42:22;6.70;99.90
5011;DHT22;2524;54.364;10.072;2023-03-14T11:44:49;6.60;99.90
5011;DHT22;2524;54.364;10.072;2023-03-14T11:47:38;6.70;99.90
5011;DHT22;2524;54.364;10.072;2023-03-14T11:50:14;6.70;99.90
5011;DHT22;2524;54.364;10.072;2023-03-14T11:55:19;6.70;99.90
5011;DHT22;2524;54.364;10.072;2023-03-14T11:57:48;6.60;99.90
5011;DHT22;2524;54.364;10.072;2023-03-14T12:00:20;6.70;99.90
5011;DHT22;2524;54.364;10.072;2023-03-14T12:02:58;6.70;99.90
5011;DHT22;2524;54.364;10.072;2023-03-14T12:13:13;6.60;99.90
5011;DHT22;2524;54.364;10.072;2023-03-14T12:15:46;6.60;99.90
5011;DHT22;2524;54.364;10.072;2023-03-14T12:18:33;6.60;99.90
5011;DHT22;2524;54.364;10.072;2023-03-14T12:21:02;6.60;99.90
5011;DHT22;2524;54.364;10.072;2023-03-14T12:23:40;6.60;99.90
5011;DHT22;2524;54.364;10.072;2023-03-14T12:26:13;6.60;99.90
5011;DHT22;2524;54.364;10.072;2023-03-14T12:28:52;6.50;99.90
5011;DHT22;2524;54.364;10.072;2023-03-14T12:31:44;6.40;99.90
5011;DHT22;2524;54.364;10.072;2023-03-14T12:39:44;6.20;99.90
5011;DHT22;2524;54.364;10.072;2023-03-14T12:42:12;6.20;99.90
5011;DHT22;2524;54.364;10.072;2023-03-14T12:44:46;6.20;99.90
5011;DHT22;2524;54.364;10.072;2023-03-14T12:49:46;6.20;99.90
5011;DHT22;2524;54.364;10.072;2023-03-14T12:52:29;6.30;99.90
5011;DHT22;2524;54.364;10.072;2023-03-14T12:57:42;6.30;99.90
5011;DHT22;2524;54.364;10.072;2023-03-14T13:00:43;6.40;99.90
5011;DHT22;2524;54.364;10.072;2023-03-14T13:05:56;6.50;99.90
5011;DHT22;2524;54.364;10.072;2023-03-14T13:08:52;6.50;99.90
5011;DHT22;2524;54.364;10.072;2023-03-14T13:11:23;6.50;99.90
5011;DHT22;2524;54.364;10.072;2023-03-14T13:13:57;6.60;99.90
5011;DHT22;2524;54.364;10.072;2023-03-14T13:16:23;6.60;99.90
5011;DHT22;2524;54.364;10.072;2023-03-14T13:18:50;6.60;99.90
5011;DHT22;2524;54.364;10.072;2023-03-14T13:21:27;6.70;99.90
5011;DHT22;2524;54.364;10.072;2023-03-14T13:26:31;6.70;99.90
5011;DHT22;2524;54.364;10.072;2023-03-14T13:28:58;6.70;99.90
5011;DHT22;2524;54.364;10.072;2023-03-14T13:31:24;6.80;99.90
5011;DHT22;2524;54.364;10.072;2023-03-14T13:34:04;6.90;99.90
5011;DHT22;2524;54.364;10.072;2023-03-14T13:36:30;6.90;99.90
5011;DHT22;2524;54.364;10.072;2023-03-14T13:39:00;6.90;99.90
5011;DHT22;2524;54.364;10.072;2023-03-14T13:41:27;7.00;99.90
5011;DHT22;2524;54.364;10.072;2023-03-14T13:44:05;7.00;99.90
5011;DHT22;2524;54.364;10.072;2023-03-14T13:46:34;7.00;99.90
5011;DHT22;2524;54.364;10.072;2023-03-14T13:49:05;7.00;99.90
5011;DHT22;2524;54.364;10.072;2023-03-14T13:51:32;6.90;99.90
5011;DHT22;2524;54.364;10.072;2023-03-14T13:54:01;6.80;99.90
5011;DHT22;2524;54.364;10.072;2023-03-14T13:56:31;6.80;99.90
5011;DHT22;2524;54.364;10.072;2023-03-14T13:58:57;6.80;99.90
5011;DHT22;2524;54.364;10.072;2023-03-14T14:01:24;6.70;98.60
5011;DHT22;2524;54.364;10.072;2023-03-14T14:03:55;6.70;99.90
5011;DHT22;2524;54.364;10.072;2023-03-14T14:06:46;6.70;99.90
5011;DHT22;2524;54.364;10.072;2023-03-14T14:09:31;6.70;99.90
5011;DHT22;2524;54.364;10.072;2023-03-14T14:12:13;6.70;99.90
5011;DHT22;2524;54.364;10.072;2023-03-14T14:14:52;6.80;99.90
5011;DHT22;2524;54.364;10.072;2023-03-14T14:17:28;6.80;99.90
5011;DHT22;2524;54.364;10.072;2023-03-14T14:19:55;6.90;99.90
5011;DHT22;2524;54.364;10.072;2023-03-14T14:22:22;7.00;99.90
5011;DHT22;2524;54.364;10.072;2023-03-14T14:24:48;6.90;99.90
5011;DHT22;2524;54.364;10.072;2023-03-14T14:27:19;7.00;99.90
5011;DHT22;2524;54.364;10.072;2023-03-14T14:30:46;7.10;99.90
5011;DHT22;2524;54.364;10.072;2023-03-14T14:32:49;7.20;99.90
5011;DHT22;2524;54.364;10.072;2023-03-14T14:35:24;7.30;99.90
5011;DHT22;2524;54.364;10.072;2023-03-14T14:37:50;7.50;99.90
5011;DHT22;2524;54.364;10.072;2023-03-14T14:40:17;7.50;99.90
5011;DHT22;2524;54.364;10.072;2023-03-14T14:42:44;7.60;99.90
5011;DHT22;2524;54.364;10.072;2023-03-14T14:45:14;7.70;99.90
5011;DHT22;2524;54.364;10.072;2023-03-14T14:47:57;7.90;99.90
5011;DHT22;2524;54.364;10.072;2023-03-14T14:50:29;7.90;99.90
5011;DHT22;2524;54.364;10.072;2023-03-14T14:53:13;8.00;99.60
5011;DHT22;2524;54.364;10.072;2023-03-14T14:55:45;7.90;98.30
5011;DHT22;2524;54.364;10.072;2023-03-14T14:58:23;7.90;98.00
5011;DHT22;2524;54.364;10.072;2023-03-14T15:00:59;7.80;98.50
5011;DHT22;2524;54.364;10.072;2023-03-14T15:03:30;7.70;98.50
5011;DHT22;2524;54.364;10.072;2023-03-14T15:05:56;7.70;97.80
5011;DHT22;2524;54.364;10.072;2023-03-14T15:08:23;7.60;96.50
5011;DHT22;2524;54.364;10.072;2023-03-14T15:10:49;7.50;97.00
5011;DHT22;2524;54.364;10.072;2023-03-14T15:13:15;7.50;96.90
5011;DHT22;2524;54.364;10.072;2023-03-14T15:15:41;7.40;96.20
5011;DHT22;2524;54.364;10.072;2023-03-14T15:18:18;7.30;96.30
5011;DHT22;2524;54.364;10.072;2023-03-14T15:20:44;7.20;96.20
5011;DHT22;2524;54.364;10.072;2023-03-14T15:23:16;7.20;96.80
5011;DHT22;2524;54.364;10.072;2023-03-14T15:25:42;7.10;96.60
5011;DHT22;2524;54.364;10.072;2023-03-14T15:28:21;7.10;95.70
5011;DHT22;2524;54.364;10.072;2023-03-14T15:30:55;7.10;96.00
5011;DHT22;2524;54.364;10.072;2023-03-14T15:33:22;7.00;95.50
5011;DHT22;2524;54.364;10.072;2023-03-14T15:35:48;7.00;95.70
5011;DHT22;2524;54.364;10.072;2023-03-14T15:38:17;6.90;95.40
5011;DHT22;2524;54.364;10.072;2023-03-14T15:40:44;7.00;95.60
5011;DHT22;2524;54.364;10.072;2023-03-14T15:43:10;7.00;94.50
5011;DHT22;2524;54.364;10.072;2023-03-14T15:45:36;7.00;94.30
5011;DHT22;2524;54.364;10.072;2023-03-14T15:48:02;7.00;94.70
5011;DHT22;2524;54.364;10.072;2023-03-14T15:50:28;7.10;94.80
5011;DHT22;2524;54.364;10.072;2023-03-14T15:52:53;7.00;95.40
5011;DHT22;2524;54.364;10.072;2023-03-14T15:55:19;7.20;94.90
5011;DHT22;2524;54.364;10.072;2023-03-14T15:57:45;7.30;94.30
5011;DHT22;2524;54.364;10.072;2023-03-14T16:00:16;7.30;94.20
5011;DHT22;2524;54.364;10.072;2023-03-14T16:02:47;7.30;94.20
5011;DHT22;2524;54.364;10.072;2023-03-14T16:05:13;7.30;93.30
5011;DHT22;2524;54.364;10.072;2023-03-14T16:07:40;7.30;93.00
5011;DHT22;2524;54.364;10.072;2023-03-14T16:10:06;7.30;92.70
5011;DHT22;2524;54.364;10.072;2023-03-14T16:12:33;7.30;92.50
5011;DHT22;2524;54.364;10.072;2023-03-14T16:14:59;7.30;92.60
5011;DHT22;2524;54.364;10.072;2023-03-14T16:17:24;7.50;92.00
5011;DHT22;2524;54.364;10.072;2023-03-14T16:19:50;7.50;91.90
5011;DHT22;2524;54.364;10.072;2023-03-14T16:22:15;7.20;90.80
5011;DHT22;2524;54.364;10.072;2023-03-14T16:24:41;7.10;90.50
5011;DHT22;2524;54.364;10.072;2023-03-14T16:27:09;7.00;89.60
5011;DHT22;2524;54.364;10.072;2023-03-14T16:29:34;6.90;90.10
5011;DHT22;2524;54.364;10.072;2023-03-14T16:32:00;6.80;90.00
5011;DHT22;2524;54.364;10.072;2023-03-14T16:34:25;6.70;89.90
5011;DHT22;2524;54.364;10.072;2023-03-14T16:36:51;6.70;90.40
5011;DHT22;2524;54.364;10.072;2023-03-14T16:39:17;6.60;89.80
5011;DHT22;2524;54.364;10.072;2023-03-14T16:41:43;6.50;89.50
5011;DHT22;2524;54.364;10.072;2023-03-14T16:44:09;6.50;90.20
5011;DHT22;2524;54.364;10.072;2023-03-14T16:46:35;6.40;90.20
5011;DHT22;2524;54.364;10.072;2023-03-14T16:49:01;6.40;89.70
5011;DHT22;2524;54.364;10.072;2023-03-14T16:51:27;6.30;90.00
5011;DHT22;2524;54.364;10.072;2023-03-14T16:53:52;6.30;90.00
5011;DHT22;2524;54.364;10.072;2023-03-14T16:56:18;6.20;89.60
5011;DHT22;2524;54.364;10.072;2023-03-14T16:58:44;6.20;90.10
5011;DHT22;2524;54.364;10.072;2023-03-14T17:01:11;6.30;90.20
5011;DHT22;2524;54.364;10.072;2023-03-14T17:03:39;6.10;90.20
5011;DHT22;2524;54.364;10.072;2023-03-14T17:06:05;6.10;90.20
5011;DHT22;2524;54.364;10.072;2023-03-14T17:08:32;6.10;90.30
5011;DHT22;2524;54.364;10.072;2023-03-14T17:10:57;6.00;90.30